Terminal Aerodrome Forecast
Issued by NWS Shreveport, LA

Home | Current Version | Previous Version | Text Only | Print | Product List | Glossary On
Versions: 1 2 3 4 5 6 7 8 9 10 11 12 13 14 15 16 17 18 19
012
FTUS44 KSHV 250210 AAA
TAFTXK
TAF AMD
KTXK 250210Z 2502/2524 24015G25KT P6SM VCTS BKN050CB
      TEMPO 2502/2503 VRB20G40KT 1SM +TSRA BR OVC025CB
     FM250400 22012KT P6SM SKC
      TEMPO 2504/2506 20015G25KT OVC015
     FM251400 26012G20KT P6SM SCT040=

USA.gov is the U.S. government's official web portal to all federal, state and local government web resources and services.